Andover, Ohio
Current Conditions -  °F | °C
As of 7:53 AM on Wednesday 22 Oct 2014 (Local Time) from KHZY Reporting Station
Overcast Overcast  
Wind Chill: 42°   Ceiling: 1000
Heat Index: 46°   Visibility: 10mi
Dew Point: 42°   Wind: 7mph
Humidity: 86%   Direction: 30°NNE
Pressure: 30.2"   Gusts: NA
Location:  41.61°N, 80.57°W
Report Text: KHZY 221153Z AUTO 03006KT 10SM OVC010 08/06 A3020 RMK AO2 SLP230 70030 T00780056 10078 20078 53019
Loading
Personal Weather Stations






























Interactive Weather Map
Tropical Storm Tracking
New forecast layout! Learn more

10-Day Weather Forecast

Advertisements
Track Severe Weather on mobile